sensor_id;sensor_type;location;lat;lon;timestamp;pressure;altitude;pressure_sealevel;temperature;humidity
70952;BME280;69214;55.880;37.542;2023-07-08T00:00:56;98724.81;;;17.63;81.73
70952;BME280;69214;55.880;37.542;2023-07-08T00:03:30;98718.25;;;17.59;81.74
70952;BME280;69214;55.880;37.542;2023-07-08T00:06:03;98721.00;;;17.59;82.09
70952;BME280;69214;55.880;37.542;2023-07-08T00:08:34;98712.81;;;17.54;82.00
70952;BME280;69214;55.880;37.542;2023-07-08T00:11:13;98718.09;;;17.50;80.24
70952;BME280;69214;55.880;37.542;2023-07-08T00:13:39;98729.66;;;17.52;82.00
70952;BME280;69214;55.880;37.542;2023-07-08T00:16:10;98721.66;;;17.51;81.48
70952;BME280;69214;55.880;37.542;2023-07-08T00:18:36;98729.41;;;17.48;82.00
70952;BME280;69214;55.880;37.542;2023-07-08T00:21:02;98723.66;;;17.45;82.05
70952;BME280;69214;55.880;37.542;2023-07-08T00:23:28;98732.25;;;17.43;82.21
70952;BME280;69214;55.880;37.542;2023-07-08T00:25:54;98738.94;;;17.37;82.22
70952;BME280;69214;55.880;37.542;2023-07-08T00:28:21;98728.25;;;17.31;82.41
70952;BME280;69214;55.880;37.542;2023-07-08T00:30:47;98727.78;;;17.24;82.55
70952;BME280;69214;55.880;37.542;2023-07-08T00:33:16;98747.72;;;17.39;82.77
70952;BME280;69214;55.880;37.542;2023-07-08T00:35:43;98744.16;;;17.39;83.19
70952;BME280;69214;55.880;37.542;2023-07-08T00:38:25;98738.34;;;17.40;80.39
70952;BME280;69214;55.880;37.542;2023-07-08T00:40:58;98736.75;;;17.34;81.27
70952;BME280;69214;55.880;37.542;2023-07-08T00:43:36;98746.38;;;17.37;80.79
70952;BME280;69214;55.880;37.542;2023-07-08T00:49:32;98750.03;;;17.32;79.24
70952;BME280;69214;55.880;37.542;2023-07-08T00:52:23;98748.38;;;17.31;80.12
70952;BME280;69214;55.880;37.542;2023-07-08T00:54:52;98749.50;;;17.30;82.01
70952;BME280;69214;55.880;37.542;2023-07-08T00:57:18;98747.56;;;17.31;82.46
70952;BME280;69214;55.880;37.542;2023-07-08T00:59:53;98736.22;;;17.32;80.94
70952;BME280;69214;55.880;37.542;2023-07-08T01:02:22;98742.22;;;17.39;81.95
70952;BME280;69214;55.880;37.542;2023-07-08T01:07:26;98749.94;;;17.61;81.93
70952;BME280;69214;55.880;37.542;2023-07-08T01:09:57;98748.97;;;17.76;80.53
70952;BME280;69214;55.880;37.542;2023-07-08T01:12:29;98748.47;;;17.93;80.09
70952;BME280;69214;55.880;37.542;2023-07-08T01:14:57;98744.66;;;18.07;79.91
70952;BME280;69214;55.880;37.542;2023-07-08T01:17:26;98749.28;;;18.31;79.80
70952;BME280;69214;55.880;37.542;2023-07-08T01:19:59;98757.25;;;18.51;78.96
70952;BME280;69214;55.880;37.542;2023-07-08T01:22:25;98751.72;;;18.70;78.25
70952;BME280;69214;55.880;37.542;2023-07-08T01:24:58;98745.59;;;18.73;77.67
70952;BME280;69214;55.880;37.542;2023-07-08T01:27:33;98748.38;;;18.87;77.14
70952;BME280;69214;55.880;37.542;2023-07-08T01:30:01;98758.00;;;18.89;77.36
70952;BME280;69214;55.880;37.542;2023-07-08T01:32:34;98743.25;;;18.80;77.11
70952;BME280;69214;55.880;37.542;2023-07-08T01:35:04;98741.59;;;18.79;77.75
70952;BME280;69214;55.880;37.542;2023-07-08T01:37:42;98761.47;;;18.81;76.38
70952;BME280;69214;55.880;37.542;2023-07-08T01:40:31;98751.53;;;18.80;75.30
70952;BME280;69214;55.880;37.542;2023-07-08T01:42:58;98751.31;;;18.76;77.84
70952;BME280;69214;55.880;37.542;2023-07-08T01:45:27;98752.75;;;18.74;77.65
70952;BME280;69214;55.880;37.542;2023-07-08T01:48:00;98755.44;;;18.79;77.26
70952;BME280;69214;55.880;37.542;2023-07-08T01:50:27;98736.78;;;18.71;77.86
70952;BME280;69214;55.880;37.542;2023-07-08T01:52:57;98738.03;;;18.79;77.30
70952;BME280;69214;55.880;37.542;2023-07-08T01:55:24;98750.75;;;18.93;77.98
70952;BME280;69214;55.880;37.542;2023-07-08T01:57:51;98752.31;;;18.99;77.77
70952;BME280;69214;55.880;37.542;2023-07-08T02:00:19;98759.81;;;19.13;77.25
70952;BME280;69214;55.880;37.542;2023-07-08T02:02:45;98759.81;;;19.13;76.95
70952;BME280;69214;55.880;37.542;2023-07-08T02:05:12;98749.34;;;19.09;77.12
70952;BME280;69214;55.880;37.542;2023-07-08T02:07:37;98756.13;;;19.17;76.74
70952;BME280;69214;55.880;37.542;2023-07-08T02:10:04;98755.81;;;19.19;76.50
70952;BME280;69214;55.880;37.542;2023-07-08T02:12:31;98730.00;;;19.09;76.68
70952;BME280;69214;55.880;37.542;2023-07-08T02:15:00;98744.03;;;19.13;75.73
70952;BME280;69214;55.880;37.542;2023-07-08T02:17:27;98760.00;;;19.16;76.08
70952;BME280;69214;55.880;37.542;2023-07-08T02:20:15;98754.56;;;19.11;76.20
70952;BME280;69214;55.880;37.542;2023-07-08T02:22:41;98737.97;;;19.11;76.47
70952;BME280;69214;55.880;37.542;2023-07-08T02:25:08;98750.91;;;19.16;76.60
70952;BME280;69214;55.880;37.542;2023-07-08T02:27:37;98745.16;;;19.12;76.44
70952;BME280;69214;55.880;37.542;2023-07-08T02:30:04;98738.81;;;19.12;76.73
70952;BME280;69214;55.880;37.542;2023-07-08T02:32:33;98737.97;;;19.11;77.16
70952;BME280;69214;55.880;37.542;2023-07-08T02:35:07;98735.31;;;19.06;76.83
70952;BME280;69214;55.880;37.542;2023-07-08T02:37:34;98742.78;;;19.05;76.95
70952;BME280;69214;55.880;37.542;2023-07-08T02:40:00;98733.47;;;19.01;77.38
70952;BME280;69214;55.880;37.542;2023-07-08T02:42:26;98742.69;;;19.11;77.09
70952;BME280;69214;55.880;37.542;2023-07-08T02:44:52;98726.09;;;19.11;76.80
70952;BME280;69214;55.880;37.542;2023-07-08T02:47:18;98738.91;;;19.20;76.14
70952;BME280;69214;55.880;37.542;2023-07-08T02:49:44;98726.22;;;19.19;75.99
70952;BME280;69214;55.880;37.542;2023-07-08T02:52:11;98739.84;;;19.29;75.94
70952;BME280;69214;55.880;37.542;2023-07-08T02:54:38;98741.47;;;19.30;76.05
70952;BME280;69214;55.880;37.542;2023-07-08T02:57:04;98737.91;;;19.30;75.97
70952;BME280;69214;55.880;37.542;2023-07-08T02:59:30;98745.59;;;19.33;75.87
70952;BME280;69214;55.880;37.542;2023-07-08T03:01:56;98741.69;;;19.34;76.23
70952;BME280;69214;55.880;37.542;2023-07-08T03:04:21;98725.91;;;19.34;76.11
70952;BME280;69214;55.880;37.542;2023-07-08T03:06:50;98732.25;;;19.49;75.25
70952;BME280;69214;55.880;37.542;2023-07-08T03:09:16;98727.16;;;19.56;75.67
70952;BME280;69214;55.880;37.542;2023-07-08T03:11:43;98713.22;;;19.61;74.82
70952;BME280;69214;55.880;37.542;2023-07-08T03:14:09;98721.50;;;19.75;74.74
70952;BME280;69214;55.880;37.542;2023-07-08T03:16:36;98738.59;;;19.90;73.98
70952;BME280;69214;55.880;37.542;2023-07-08T03:19:01;98737.34;;;19.96;73.54
70952;BME280;69214;55.880;37.542;2023-07-08T03:21:28;98733.34;;;20.02;73.61
70952;BME280;69214;55.880;37.542;2023-07-08T03:23:54;98732.41;;;20.07;73.47
70952;BME280;69214;55.880;37.542;2023-07-08T03:26:25;98739.53;;;20.22;72.73
70952;BME280;69214;55.880;37.542;2023-07-08T03:28:52;98737.66;;;20.31;72.94
70952;BME280;69214;55.880;37.542;2023-07-08T03:31:20;98724.13;;;20.29;73.00
70952;BME280;69214;55.880;37.542;2023-07-08T03:33:46;98721.44;;;20.38;72.78
70952;BME280;69214;55.880;37.542;2023-07-08T03:36:15;98719.13;;;20.54;71.67
70952;BME280;69214;55.880;37.542;2023-07-08T03:38:52;98720.56;;;20.74;71.19
70952;BME280;69214;55.880;37.542;2023-07-08T03:41:19;98711.31;;;20.87;71.31
70952;BME280;69214;55.880;37.542;2023-07-08T03:43:45;98703.84;;;20.96;70.70
70952;BME280;69214;55.880;37.542;2023-07-08T03:46:14;98717.63;;;21.10;69.98
70952;BME280;69214;55.880;37.542;2023-07-08T03:48:40;98717.88;;;21.22;69.82
70952;BME280;69214;55.880;37.542;2023-07-08T03:51:10;98729.72;;;21.45;69.20
70952;BME280;69214;55.880;37.542;2023-07-08T03:53:39;98723.56;;;21.56;68.56
70952;BME280;69214;55.880;37.542;2023-07-08T03:56:05;98726.84;;;21.67;68.46
70952;BME280;69214;55.880;37.542;2023-07-08T03:58:31;98727.41;;;21.86;68.15
70952;BME280;69214;55.880;37.542;2023-07-08T04:00:56;98736.13;;;22.11;66.97
70952;BME280;69214;55.880;37.542;2023-07-08T04:03:22;98740.72;;;22.33;67.02
70952;BME280;69214;55.880;37.542;2023-07-08T04:05:48;98739.41;;;22.47;66.21
70952;BME280;69214;55.880;37.542;2023-07-08T04:08:14;98741.69;;;22.62;65.71
70952;BME280;69214;55.880;37.542;2023-07-08T04:10:40;98737.91;;;22.67;64.77
70952;BME280;69214;55.880;37.542;2023-07-08T04:13:06;98746.91;;;22.73;64.44
70952;BME280;69214;55.880;37.542;2023-07-08T04:15:32;98730.41;;;22.59;64.77
70952;BME280;69214;55.880;37.542;2023-07-08T04:17:57;98727.94;;;22.49;65.07
70952;BME280;69214;55.880;37.542;2023-07-08T04:20:23;98735.97;;;22.50;64.93
70952;BME280;69214;55.880;37.542;2023-07-08T04:22:49;98737.78;;;22.38;65.48
70952;BME280;69214;55.880;37.542;2023-07-08T04:25:15;98738.09;;;22.27;65.61
70952;BME280;69214;55.880;37.542;2023-07-08T04:27:41;98746.59;;;22.22;65.42
70952;BME280;69214;55.880;37.542;2023-07-08T04:30:09;98751.66;;;22.12;65.74
70952;BME280;69214;55.880;37.542;2023-07-08T04:32:39;98750.31;;;22.01;66.25
70952;BME280;69214;55.880;37.542;2023-07-08T04:35:05;98742.44;;;21.85;66.44
70952;BME280;69214;55.880;37.542;2023-07-08T04:37:31;98739.66;;;21.85;65.92
70952;BME280;69214;55.880;37.542;2023-07-08T04:39:56;98754.53;;;21.98;65.63
70952;BME280;69214;55.880;37.542;2023-07-08T04:42:22;98764.88;;;22.06;65.55
70952;BME280;69214;55.880;37.542;2023-07-08T04:44:49;98763.09;;;22.19;65.10
70952;BME280;69214;55.880;37.542;2023-07-08T04:47:15;98756.72;;;22.27;64.43
70952;BME280;69214;55.880;37.542;2023-07-08T04:49:40;98760.66;;;22.17;64.35
70952;BME280;69214;55.880;37.542;2023-07-08T04:52:09;98772.25;;;22.19;64.51
70952;BME280;69214;55.880;37.542;2023-07-08T04:54:35;98763.56;;;22.04;64.85
70952;BME280;69214;55.880;37.542;2023-07-08T04:57:01;98773.88;;;22.03;65.38
70952;BME280;69214;55.880;37.542;2023-07-08T04:59:27;98767.50;;;22.03;65.72
70952;BME280;69214;55.880;37.542;2023-07-08T05:01:53;98774.63;;;21.95;65.84
70952;BME280;69214;55.880;37.542;2023-07-08T05:04:21;98774.13;;;21.84;65.78
70952;BME280;69214;55.880;37.542;2023-07-08T05:06:48;98763.63;;;21.73;65.98
70952;BME280;69214;55.880;37.542;2023-07-08T05:09:14;98762.16;;;21.66;66.25
70952;BME280;69214;55.880;37.542;2023-07-08T05:11:40;98766.06;;;21.65;65.74
70952;BME280;69214;55.880;37.542;2023-07-08T05:14:06;98753.97;;;21.61;65.65
70952;BME280;69214;55.880;37.542;2023-07-08T05:16:34;98753.63;;;21.63;65.76
70952;BME280;69214;55.880;37.542;2023-07-08T05:19:02;98750.19;;;21.57;65.68
70952;BME280;69214;55.880;37.542;2023-07-08T05:21:29;98747.88;;;21.51;65.89
70952;BME280;69214;55.880;37.542;2023-07-08T05:24:02;98755.72;;;21.49;65.87
70952;BME280;69214;55.880;37.542;2023-07-08T05:26:29;98761.09;;;21.45;66.12
70952;BME280;69214;55.880;37.542;2023-07-08T05:28:55;98760.91;;;21.42;65.93
70952;BME280;69214;55.880;37.542;2023-07-08T05:31:21;98750.59;;;21.33;66.50
70952;BME280;69214;55.880;37.542;2023-07-08T05:33:47;98736.47;;;21.21;66.53
70952;BME280;69214;55.880;37.542;2023-07-08T05:36:12;98759.81;;;21.20;66.59
70952;BME280;69214;55.880;37.542;2023-07-08T05:38:38;98761.44;;;21.21;66.90
70952;BME280;69214;55.880;37.542;2023-07-08T05:41:04;98755.28;;;21.24;66.52
70952;BME280;69214;55.880;37.542;2023-07-08T05:43:30;98759.56;;;21.30;66.10
70952;BME280;69214;55.880;37.542;2023-07-08T05:46:00;98754.69;;;21.36;66.04
70952;BME280;69214;55.880;37.542;2023-07-08T05:48:27;98758.00;;;21.47;66.27
70952;BME280;69214;55.880;37.542;2023-07-08T05:50:53;98765.03;;;21.53;65.70
70952;BME280;69214;55.880;37.542;2023-07-08T05:53:24;98767.00;;;21.52;65.60
70952;BME280;69214;55.880;37.542;2023-07-08T05:55:54;98773.22;;;21.58;65.56
70952;BME280;69214;55.880;37.542;2023-07-08T05:58:26;98761.13;;;21.54;65.26
70952;BME280;69214;55.880;37.542;2023-07-08T06:00:58;98770.63;;;21.61;65.11
70952;BME280;69214;55.880;37.542;2023-07-08T06:03:31;98767.81;;;21.53;65.31
70952;BME280;69214;55.880;37.542;2023-07-08T06:06:04;98774.81;;;21.50;65.26
70952;BME280;69214;55.880;37.542;2023-07-08T06:08:35;98767.13;;;21.47;65.08
70952;BME280;69214;55.880;37.542;2023-07-08T06:11:10;98765.53;;;21.55;65.45
70952;BME280;69214;55.880;37.542;2023-07-08T06:13:43;98756.44;;;21.72;64.92
70952;BME280;69214;55.880;37.542;2023-07-08T06:16:16;98748.31;;;21.92;63.92
70952;BME280;69214;55.880;37.542;2023-07-08T06:18:49;98731.06;;;22.13;63.36
70952;BME280;69214;55.880;37.542;2023-07-08T06:21:18;98754.78;;;22.45;62.45
70952;BME280;69214;55.880;37.542;2023-07-08T06:23:44;98757.56;;;22.62;62.10
70952;BME280;69214;55.880;37.542;2023-07-08T06:26:09;98762.28;;;22.70;62.24
70952;BME280;69214;55.880;37.542;2023-07-08T06:28:35;98751.63;;;22.98;61.40
70952;BME280;69214;55.880;37.542;2023-07-08T06:31:01;98759.06;;;23.32;60.51
70952;BME280;69214;55.880;37.542;2023-07-08T06:33:27;98759.28;;;23.65;59.70
70952;BME280;69214;55.880;37.542;2023-07-08T06:35:53;98767.84;;;23.89;58.84
70952;BME280;69214;55.880;37.542;2023-07-08T06:38:18;98755.44;;;24.08;58.41
70952;BME280;69214;55.880;37.542;2023-07-08T06:40:44;98767.22;;;24.13;57.99
70952;BME280;69214;55.880;37.542;2023-07-08T06:43:10;98764.22;;;24.18;57.55
70952;BME280;69214;55.880;37.542;2023-07-08T06:45:44;98759.66;;;24.14;57.56
70952;BME280;69214;55.880;37.542;2023-07-08T06:48:10;98751.97;;;24.11;57.55
70952;BME280;69214;55.880;37.542;2023-07-08T06:50:37;98745.50;;;23.98;58.36
70952;BME280;69214;55.880;37.542;2023-07-08T06:53:03;98749.06;;;23.78;58.40
70952;BME280;69214;55.880;37.542;2023-07-08T06:55:30;98751.59;;;23.62;58.77
70952;BME280;69214;55.880;37.542;2023-07-08T06:57:56;98744.78;;;23.42;59.46
70952;BME280;69214;55.880;37.542;2023-07-08T07:00:22;98742.19;;;23.37;59.61
70952;BME280;69214;55.880;37.542;2023-07-08T07:02:47;98743.78;;;23.47;59.47
70952;BME280;69214;55.880;37.542;2023-07-08T07:05:13;98740.78;;;23.61;59.04
70952;BME280;69214;55.880;37.542;2023-07-08T07:07:39;98743.00;;;23.76;58.29
70952;BME280;69214;55.880;37.542;2023-07-08T07:10:05;98733.31;;;23.82;57.86
70952;BME280;69214;55.880;37.542;2023-07-08T07:12:33;98740.88;;;24.02;57.62
70952;BME280;69214;55.880;37.542;2023-07-08T07:15:00;98751.22;;;24.22;57.27
70952;BME280;69214;55.880;37.542;2023-07-08T07:17:26;98743.25;;;24.42;56.64
70952;BME280;69214;55.880;37.542;2023-07-08T07:19:53;98747.72;;;24.34;56.42
70952;BME280;69214;55.880;37.542;2023-07-08T07:22:19;98737.97;;;24.19;55.75
70952;BME280;69214;55.880;37.542;2023-07-08T07:24:45;98753.41;;;24.17;56.04
70952;BME280;69214;55.880;37.542;2023-07-08T07:27:11;98727.97;;;23.98;56.28
70952;BME280;69214;55.880;37.542;2023-07-08T07:29:42;98740.06;;;24.02;57.62
70952;BME280;69214;55.880;37.542;2023-07-08T07:32:10;98739.97;;;23.89;56.62
70952;BME280;69214;55.880;37.542;2023-07-08T07:34:35;98739.88;;;23.77;56.83
70952;BME280;69214;55.880;37.542;2023-07-08T07:37:02;98736.47;;;23.72;56.69
70952;BME280;69214;55.880;37.542;2023-07-08T07:39:27;98718.50;;;23.61;56.60
70952;BME280;69214;55.880;37.542;2023-07-08T07:41:54;98749.31;;;23.94;56.07
70952;BME280;69214;55.880;37.542;2023-07-08T07:44:20;98741.31;;;24.13;55.54
70952;BME280;69214;55.880;37.542;2023-07-08T07:46:46;98740.63;;;24.16;55.57
70952;BME280;69214;55.880;37.542;2023-07-08T07:49:13;98749.72;;;24.04;56.11
70952;BME280;69214;55.880;37.542;2023-07-08T07:51:39;98741.41;;;23.96;56.24
70952;BME280;69214;55.880;37.542;2023-07-08T07:54:04;98743.94;;;24.09;56.28
70952;BME280;69214;55.880;37.542;2023-07-08T07:56:30;98726.38;;;24.38;55.64
70952;BME280;69214;55.880;37.542;2023-07-08T07:58:57;98754.78;;;24.73;54.53
70952;BME280;69214;55.880;37.542;2023-07-08T08:01:23;98752.22;;;24.47;54.50
70952;BME280;69214;55.880;37.542;2023-07-08T08:03:49;98752.16;;;24.06;55.82
70952;BME280;69214;55.880;37.542;2023-07-08T08:06:18;98742.53;;;23.74;56.58
70952;BME280;69214;55.880;37.542;2023-07-08T08:08:45;98759.88;;;23.79;56.87
70952;BME280;69214;55.880;37.542;2023-07-08T08:11:25;98748.06;;;23.82;57.80
70952;BME280;69214;55.880;37.542;2023-07-08T08:13:52;98764.81;;;24.03;56.40
70952;BME280;69214;55.880;37.542;2023-07-08T08:16:20;98770.59;;;24.48;55.72
70952;BME280;69214;55.880;37.542;2023-07-08T08:18:46;98764.50;;;24.88;54.36
70952;BME280;69214;55.880;37.542;2023-07-08T08:21:12;98775.63;;;25.09;53.62
70952;BME280;69214;55.880;37.542;2023-07-08T08:23:39;98777.97;;;25.07;53.70
70952;BME280;69214;55.880;37.542;2023-07-08T08:26:05;98782.13;;;24.80;53.71
70952;BME280;69214;55.880;37.542;2023-07-08T08:28:30;98783.94;;;24.43;54.76
70952;BME280;69214;55.880;37.542;2023-07-08T08:30:56;98782.69;;;24.02;56.00
70952;BME280;69214;55.880;37.542;2023-07-08T08:33:22;98788.94;;;23.70;56.04
70952;BME280;69214;55.880;37.542;2023-07-08T08:35:48;98784.78;;;23.38;56.18
70952;BME280;69214;55.880;37.542;2023-07-08T08:38:14;98797.78;;;23.16;55.97
70952;BME280;69214;55.880;37.542;2023-07-08T08:40:41;98789.44;;;22.99;56.78
70952;BME280;69214;55.880;37.542;2023-07-08T08:43:28;98785.53;;;23.00;57.69
70952;BME280;69214;55.880;37.542;2023-07-08T08:48:37;98772.78;;;23.46;56.54
70952;BME280;69214;55.880;37.542;2023-07-08T08:51:14;98776.34;;;23.93;56.25
70952;BME280;69214;55.880;37.542;2023-07-08T08:53:41;98778.69;;;24.41;53.60
70952;BME280;69214;55.880;37.542;2023-07-08T08:56:39;98788.34;;;25.18;54.83
70952;BME280;69214;55.880;37.542;2023-07-08T09:01:47;98778.09;;;25.92;50.29
70952;BME280;69214;55.880;37.542;2023-07-08T09:04:21;98789.59;;;26.15;51.95
70952;BME280;69214;55.880;37.542;2023-07-08T09:06:50;98743.06;;;26.23;49.66
70952;BME280;69214;55.880;37.542;2023-07-08T09:09:24;98777.94;;;26.77;49.97
70952;BME280;69214;55.880;37.542;2023-07-08T09:12:11;98775.81;;;27.30;50.20
70952;BME280;69214;55.880;37.542;2023-07-08T09:14:38;98779.19;;;27.52;45.50
70952;BME280;69214;55.880;37.542;2023-07-08T09:17:29;98777.47;;;27.47;48.34
70952;BME280;69214;55.880;37.542;2023-07-08T09:20:36;98783.63;;;27.37;49.98
70952;BME280;69214;55.880;37.542;2023-07-08T09:23:20;98767.63;;;27.53;50.05
70952;BME280;69214;55.880;37.542;2023-07-08T09:26:14;98770.09;;;27.70;48.33
70952;BME280;69214;55.880;37.542;2023-07-08T09:28:44;98773.44;;;27.60;46.81
70952;BME280;69214;55.880;37.542;2023-07-08T09:31:25;98764.91;;;27.57;49.07
70952;BME280;69214;55.880;37.542;2023-07-08T09:33:54;98778.50;;;27.70;45.16
70952;BME280;69214;55.880;37.542;2023-07-08T09:36:30;98777.41;;;27.75;44.58
70952;BME280;69214;55.880;37.542;2023-07-08T09:38:55;98780.28;;;27.94;44.53
70952;BME280;69214;55.880;37.542;2023-07-08T09:41:35;98779.34;;;28.22;47.84
70952;BME280;69214;55.880;37.542;2023-07-08T09:44:06;98776.53;;;28.22;46.13
70952;BME280;69214;55.880;37.542;2023-07-08T09:46:38;98763.81;;;28.09;43.92
70952;BME280;69214;55.880;37.542;2023-07-08T09:51:55;98771.41;;;28.08;43.55
70952;BME280;69214;55.880;37.542;2023-07-08T09:54:23;98764.41;;;28.33;44.66
70952;BME280;69214;55.880;37.542;2023-07-08T09:59:30;98775.19;;;28.86;44.87
70952;BME280;69214;55.880;37.542;2023-07-08T10:02:21;98777.53;;;29.03;45.70
70952;BME280;69214;55.880;37.542;2023-07-08T10:04:56;98768.75;;;29.05;45.06
70952;BME280;69214;55.880;37.542;2023-07-08T10:07:22;98780.44;;;28.87;42.04
70952;BME280;69214;55.880;37.542;2023-07-08T10:09:50;98772.13;;;28.56;44.95
70952;BME280;69214;55.880;37.542;2023-07-08T10:12:20;98769.88;;;28.11;43.53
70952;BME280;69214;55.880;37.542;2023-07-08T10:14:52;98773.75;;;28.06;45.12
70952;BME280;69214;55.880;37.542;2023-07-08T10:17:21;98784.06;;;28.18;43.63
70952;BME280;69214;55.880;37.542;2023-07-08T10:19:47;98770.03;;;28.53;41.45
70952;BME280;69214;55.880;37.542;2023-07-08T10:22:35;98774.84;;;28.72;45.45
70952;BME280;69214;55.880;37.542;2023-07-08T10:25:19;98765.19;;;29.08;43.98
70952;BME280;69214;55.880;37.542;2023-07-08T10:31:11;98771.44;;;29.85;41.77
70952;BME280;69214;55.880;37.542;2023-07-08T10:42:26;98754.31;;;28.67;44.57
70952;BME280;69214;55.880;37.542;2023-07-08T10:45:15;98766.84;;;28.19;45.03
70952;BME280;69214;55.880;37.542;2023-07-08T10:50:49;98781.72;;;28.04;44.77
70952;BME280;69214;55.880;37.542;2023-07-08T10:53:37;98775.22;;;28.00;45.46
70952;BME280;69214;55.880;37.542;2023-07-08T10:56:18;98770.16;;;27.90;44.16
70952;BME280;69214;55.880;37.542;2023-07-08T11:01:50;98763.84;;;27.93;44.88
70952;BME280;69214;55.880;37.542;2023-07-08T11:09:52;98756.41;;;28.00;44.64
70952;BME280;69214;55.880;37.542;2023-07-08T11:12:51;98763.88;;;28.12;45.06
70952;BME280;69214;55.880;37.542;2023-07-08T11:15:26;98762.16;;;28.23;41.41
70952;BME280;69214;55.880;37.542;2023-07-08T11:23:33;98761.66;;;27.86;44.78
70952;BME280;69214;55.880;37.542;2023-07-08T11:26:32;98775.88;;;27.78;42.68
70952;BME280;69214;55.880;37.542;2023-07-08T11:29:00;98779.19;;;27.36;43.20
70952;BME280;69214;55.880;37.542;2023-07-08T11:31:30;98769.94;;;27.20;44.70
70952;BME280;69214;55.880;37.542;2023-07-08T11:33:57;98779.69;;;27.10;43.16
70952;BME280;69214;55.880;37.542;2023-07-08T11:36:24;98778.78;;;26.94;43.89
70952;BME280;69214;55.880;37.542;2023-07-08T11:38:54;98766.97;;;26.44;44.64
70952;BME280;69214;55.880;37.542;2023-07-08T11:41:22;98779.38;;;25.95;45.08
70952;BME280;69214;55.880;37.542;2023-07-08T11:43:59;98782.06;;;25.67;46.35
70952;BME280;69214;55.880;37.542;2023-07-08T11:46:31;98768.53;;;25.57;46.06
70952;BME280;69214;55.880;37.542;2023-07-08T11:49:02;98768.69;;;25.85;45.88
70952;BME280;69214;55.880;37.542;2023-07-08T11:51:32;98773.09;;;25.98;45.09
70952;BME280;69214;55.880;37.542;2023-07-08T11:59:24;98769.09;;;25.62;45.56
70952;BME280;69214;55.880;37.542;2023-07-08T12:04:24;98763.81;;;25.24;46.69
70952;BME280;69214;55.880;37.542;2023-07-08T12:07:14;98763.50;;;25.50;46.77
70952;BME280;69214;55.880;37.542;2023-07-08T12:09:58;98765.66;;;25.77;46.28
70952;BME280;69214;55.880;37.542;2023-07-08T12:12:30;98764.59;;;25.94;45.96
70952;BME280;69214;55.880;37.542;2023-07-08T12:15:23;98762.22;;;26.33;45.41
70952;BME280;69214;55.880;37.542;2023-07-08T12:17:48;98764.69;;;26.62;42.91
70952;BME280;69214;55.880;37.542;2023-07-08T12:20:35;98765.41;;;26.87;45.33
70952;BME280;69214;55.880;37.542;2023-07-08T12:23:01;98775.19;;;27.21;42.07
70952;BME280;69214;55.880;37.542;2023-07-08T12:25:31;98757.41;;;27.45;43.05
70952;BME280;69214;55.880;37.542;2023-07-08T12:27:58;98757.94;;;27.51;41.56
70952;BME280;69214;55.880;37.542;2023-07-08T12:30:27;98759.41;;;27.76;42.97
70952;BME280;69214;55.880;37.542;2023-07-08T12:32:54;98761.66;;;28.02;40.76
70952;BME280;69214;55.880;37.542;2023-07-08T12:35:23;98754.03;;;28.02;41.41
70952;BME280;69214;55.880;37.542;2023-07-08T12:37:57;98740.88;;;27.71;42.14
70952;BME280;69214;55.880;37.542;2023-07-08T12:40:25;98746.56;;;27.59;41.87
70952;BME280;69214;55.880;37.542;2023-07-08T12:42:52;98747.84;;;27.62;40.62
70952;BME280;69214;55.880;37.542;2023-07-08T12:45:22;98743.50;;;27.64;42.28
70952;BME280;69214;55.880;37.542;2023-07-08T12:47:48;98748.53;;;27.59;40.69
70952;BME280;69214;55.880;37.542;2023-07-08T12:50:15;98739.75;;;27.29;41.30
70952;BME280;69214;55.880;37.542;2023-07-08T12:52:44;98746.47;;;26.96;43.23
70952;BME280;69214;55.880;37.542;2023-07-08T12:55:12;98754.34;;;26.78;43.17
70952;BME280;69214;55.880;37.542;2023-07-08T12:57:41;98746.31;;;26.49;44.11
70952;BME280;69214;55.880;37.542;2023-07-08T13:00:32;98732.88;;;26.02;46.02
70952;BME280;69214;55.880;37.542;2023-07-08T13:03:15;98742.56;;;25.93;45.20
70952;BME280;69214;55.880;37.542;2023-07-08T13:05:42;98743.44;;;26.09;43.06
70952;BME280;69214;55.880;37.542;2023-07-08T13:08:13;98746.69;;;26.35;43.90
70952;BME280;69214;55.880;37.542;2023-07-08T13:10:40;98735.28;;;26.68;41.23
70952;BME280;69214;55.880;37.542;2023-07-08T13:13:12;98750.09;;;26.97;42.33
70952;BME280;69214;55.880;37.542;2023-07-08T13:15:41;98750.75;;;27.06;41.19
70952;BME280;69214;55.880;37.542;2023-07-08T13:18:16;98753.19;;;27.07;41.76
70952;BME280;69214;55.880;37.542;2023-07-08T13:20:45;98739.84;;;26.89;40.17
70952;BME280;69214;55.880;37.542;2023-07-08T13:23:12;98742.75;;;26.64;39.52
70952;BME280;69214;55.880;37.542;2023-07-08T13:25:38;98739.94;;;26.36;39.95
70952;BME280;69214;55.880;37.542;2023-07-08T13:28:37;98744.25;;;26.34;43.08
70952;BME280;69214;55.880;37.542;2023-07-08T13:31:18;98722.44;;;26.27;41.91
70952;BME280;69214;55.880;37.542;2023-07-08T13:33:53;98736.78;;;26.26;42.24
70952;BME280;69214;55.880;37.542;2023-07-08T13:36:22;98729.19;;;25.86;41.89
70952;BME280;69214;55.880;37.542;2023-07-08T13:38:48;98739.75;;;25.44;42.06
70952;BME280;69214;55.880;37.542;2023-07-08T13:41:20;98729.91;;;25.01;43.99
70952;BME280;69214;55.880;37.542;2023-07-08T13:43:47;98733.00;;;24.67;43.50
70952;BME280;69214;55.880;37.542;2023-07-08T13:49:20;98733.31;;;24.32;44.04
70952;BME280;69214;55.880;37.542;2023-07-08T13:51:46;98727.03;;;24.14;43.16
70952;BME280;69214;55.880;37.542;2023-07-08T13:54:25;98730.22;;;24.04;45.23
70952;BME280;69214;55.880;37.542;2023-07-08T13:56:53;98724.84;;;23.99;44.47
70952;BME280;69214;55.880;37.542;2023-07-08T13:59:23;98732.72;;;24.18;44.40
70952;BME280;69214;55.880;37.542;2023-07-08T14:01:51;98735.91;;;24.37;43.64